createdAt,value
2022-12-11T00:00:40.403Z,100.00
2022-12-11T00:03:12.760Z,100.00
2022-12-11T00:05:43.739Z,100.00
2022-12-11T00:08:11.535Z,100.00
2022-12-11T00:10:39.389Z,100.00
2022-12-11T00:13:06.965Z,100.00
2022-12-11T00:15:35.911Z,100.00
2022-12-11T00:18:03.561Z,100.00
2022-12-11T00:20:31.351Z,100.00
2022-12-11T00:22:58.937Z,100.00
2022-12-11T00:25:26.874Z,100.00
2022-12-11T00:27:54.475Z,100.00
2022-12-11T00:30:22.184Z,100.00
2022-12-11T00:32:52.420Z,100.00
2022-12-11T00:35:19.977Z,100.00
2022-12-11T00:37:47.723Z,100.00
2022-12-11T00:40:15.472Z,100.00
2022-12-11T00:42:43.108Z,100.00
2022-12-11T00:45:11.799Z,100.00
2022-12-11T00:47:39.800Z,100.00
2022-12-11T00:50:09.511Z,100.00
2022-12-11T00:52:37.137Z,100.00
2022-12-11T00:55:05.236Z,100.00
2022-12-11T00:57:33.052Z,100.00
2022-12-11T01:00:00.775Z,100.00
2022-12-11T01:02:28.521Z,100.00
2022-12-11T01:04:56.276Z,100.00
2022-12-11T01:07:25.904Z,100.00
2022-12-11T01:10:11.055Z,100.00
2022-12-11T01:12:38.740Z,100.00
2022-12-11T01:15:07.355Z,100.00
2022-12-11T01:17:35.311Z,100.00
2022-12-11T01:20:04.284Z,100.00
2022-12-11T01:22:33.384Z,100.00
2022-12-11T01:25:01.072Z,100.00
2022-12-11T01:27:28.702Z,100.00
2022-12-11T01:29:56.453Z,100.00
2022-12-11T01:32:24.044Z,100.00
2022-12-11T01:34:52.495Z,100.00
2022-12-11T01:37:20.197Z,100.00
2022-12-11T01:39:49.230Z,100.00
2022-12-11T01:42:18.901Z,100.00
2022-12-11T01:45:27.180Z,100.00
2022-12-11T01:47:58.867Z,100.00
2022-12-11T01:50:26.673Z,100.00
2022-12-11T01:52:54.566Z,100.00
2022-12-11T01:55:23.541Z,100.00
2022-12-11T01:57:52.359Z,100.00
2022-12-11T02:00:20.759Z,100.00
2022-12-11T02:02:48.523Z,100.00
2022-12-11T02:05:16.527Z,100.00
2022-12-11T02:07:47.742Z,100.00
2022-12-11T02:10:15.571Z,100.00
2022-12-11T02:12:53.366Z,100.00
2022-12-11T02:15:27.011Z,100.00
2022-12-11T02:17:59.669Z,100.00
2022-12-11T02:20:29.877Z,100.00
2022-12-11T02:23:25.459Z,100.00
2022-12-11T02:25:59.032Z,100.00
2022-12-11T02:28:31.402Z,100.00
2022-12-11T02:31:03.061Z,100.00
2022-12-11T02:33:37.170Z,100.00
2022-12-11T02:36:06.386Z,100.00
2022-12-11T02:38:36.185Z,100.00
2022-12-11T02:41:04.203Z,100.00
2022-12-11T02:43:34.474Z,100.00
2022-12-11T02:46:03.214Z,100.00
2022-12-11T02:48:31.665Z,100.00
2022-12-11T02:51:00.053Z,100.00
2022-12-11T02:53:30.727Z,100.00
2022-12-11T02:56:01.608Z,100.00
2022-12-11T02:58:30.761Z,100.00
2022-12-11T03:00:59.830Z,100.00
2022-12-11T03:03:29.641Z,100.00
2022-12-11T03:05:57.495Z,100.00
2022-12-11T03:08:25.291Z,100.00
2022-12-11T03:10:52.990Z,100.00
2022-12-11T03:13:22.041Z,100.00
2022-12-11T03:15:57.289Z,100.00
2022-12-11T03:18:31.699Z,100.00
2022-12-11T03:21:06.446Z,100.00
2022-12-11T03:23:36.667Z,100.00
2022-12-11T03:26:06.596Z,100.00
2022-12-11T03:28:41.107Z,100.00
2022-12-11T03:31:12.482Z,100.00
2022-12-11T03:33:42.816Z,100.00
2022-12-11T03:36:12.328Z,100.00
2022-12-11T03:38:43.258Z,100.00
2022-12-11T03:41:12.730Z,100.00
2022-12-11T03:43:41.786Z,100.00
2022-12-11T03:46:10.885Z,100.00
2022-12-11T03:48:41.736Z,100.00
2022-12-11T03:51:10.392Z,100.00
2022-12-11T03:53:38.968Z,100.00
2022-12-11T03:56:08.294Z,100.00
2022-12-11T03:58:35.985Z,100.00
2022-12-11T04:01:03.710Z,100.00
2022-12-11T04:03:31.353Z,100.00
2022-12-11T04:06:00.452Z,100.00
2022-12-11T04:08:28.255Z,100.00
2022-12-11T04:11:09.925Z,100.00
2022-12-11T04:13:37.882Z,100.00
2022-12-11T04:16:04.942Z,100.00
2022-12-11T04:18:50.317Z,100.00
2022-12-11T04:21:39.638Z,100.00
2022-12-11T04:24:17.448Z,100.00
2022-12-11T04:26:46.101Z,100.00
2022-12-11T04:29:14.243Z,100.00
2022-12-11T04:31:41.877Z,100.00
2022-12-11T04:34:09.714Z,100.00
2022-12-11T04:36:38.774Z,100.00
2022-12-11T04:39:07.165Z,100.00
2022-12-11T04:41:37.141Z,100.00
2022-12-11T04:44:05.124Z,100.00
2022-12-11T04:46:33.188Z,100.00
2022-12-11T04:49:01.279Z,100.00
2022-12-11T04:51:29.657Z,100.00
2022-12-11T04:53:59.444Z,100.00
2022-12-11T04:56:27.338Z,100.00
2022-12-11T04:58:54.963Z,100.00
2022-12-11T05:01:23.905Z,100.00
2022-12-11T05:03:52.130Z,100.00
2022-12-11T05:06:19.764Z,100.00
2022-12-11T05:08:47.579Z,100.00
2022-12-11T05:11:17.439Z,100.00
2022-12-11T05:13:45.747Z,100.00
2022-12-11T05:16:16.393Z,100.00
2022-12-11T05:18:44.235Z,100.00
2022-12-11T05:21:15.451Z,100.00
2022-12-11T05:23:43.748Z,100.00
2022-12-11T05:26:14.162Z,100.00
2022-12-11T05:28:43.414Z,100.00
2022-12-11T05:31:14.035Z,100.00
2022-12-11T05:33:41.873Z,100.00
2022-12-11T05:36:10.262Z,100.00
2022-12-11T05:38:37.905Z,100.00
2022-12-11T05:41:07.213Z,100.00
2022-12-11T05:43:36.847Z,100.00
2022-12-11T05:46:10.046Z,100.00
2022-12-11T05:48:38.787Z,100.00
2022-12-11T05:51:07.267Z,100.00
2022-12-11T05:53:35.334Z,100.00
2022-12-11T05:56:03.586Z,100.00
2022-12-11T05:58:31.254Z,100.00
2022-12-11T06:00:59.000Z,100.00
2022-12-11T06:03:28.035Z,100.00
2022-12-11T06:05:55.841Z,100.00
2022-12-11T06:08:23.534Z,100.00
2022-12-11T06:10:51.650Z,100.00
2022-12-11T06:13:19.395Z,100.00
2022-12-11T06:15:47.034Z,100.00
2022-12-11T06:18:14.702Z,100.00
2022-12-11T06:20:43.786Z,100.00
2022-12-11T06:23:11.554Z,100.00
2022-12-11T06:25:39.859Z,100.00
2022-12-11T06:28:07.533Z,100.00
2022-12-11T06:30:38.664Z,100.00
2022-12-11T06:33:07.447Z,100.00
2022-12-11T06:35:40.259Z,100.00
2022-12-11T06:38:11.537Z,100.00
2022-12-11T06:40:39.595Z,100.00
2022-12-11T06:43:07.341Z,100.00
2022-12-11T06:45:35.036Z,100.00
2022-12-11T06:48:02.733Z,100.00
2022-12-11T06:50:30.430Z,100.00
2022-12-11T06:52:58.168Z,100.00
2022-12-11T06:55:27.262Z,100.00
2022-12-11T06:57:54.899Z,100.00
2022-12-11T07:00:22.847Z,100.00
2022-12-11T07:02:51.654Z,100.00
2022-12-11T07:05:19.508Z,100.00
2022-12-11T07:07:47.192Z,100.00
2022-12-11T07:10:14.882Z,100.00
2022-12-11T07:12:43.869Z,100.00
2022-12-11T07:15:12.517Z,100.00
2022-12-11T07:17:40.490Z,100.00
2022-12-11T07:20:09.212Z,100.00
2022-12-11T07:22:40.345Z,100.00
2022-12-11T07:25:11.246Z,100.00
2022-12-11T07:27:39.196Z,100.00
2022-12-11T07:30:10.303Z,100.00
2022-12-11T07:32:38.017Z,100.00
2022-12-11T07:35:06.752Z,100.00
2022-12-11T07:37:34.424Z,100.00
2022-12-11T07:40:02.092Z,100.00
2022-12-11T07:42:29.783Z,100.00
2022-12-11T07:44:57.501Z,100.00
2022-12-11T07:47:26.484Z,100.00
2022-12-11T07:49:54.070Z,100.00
2022-12-11T07:52:21.667Z,100.00
2022-12-11T07:54:49.510Z,100.00
2022-12-11T07:57:17.127Z,100.00
2022-12-11T07:59:44.752Z,100.00
2022-12-11T08:02:12.669Z,100.00
2022-12-11T08:04:41.647Z,100.00
2022-12-11T08:07:09.367Z,100.00
2022-12-11T08:09:37.073Z,100.00
2022-12-11T08:12:05.157Z,100.00
2022-12-11T08:14:32.860Z,100.00
2022-12-11T08:17:02.331Z,100.00
2022-12-11T08:19:29.942Z,100.00
2022-12-11T08:21:58.870Z,100.00
2022-12-11T08:24:27.586Z,100.00
2022-12-11T08:26:55.239Z,100.00
2022-12-11T08:29:22.821Z,100.00
2022-12-11T08:31:50.443Z,100.00
2022-12-11T08:34:18.106Z,100.00
2022-12-11T08:36:45.796Z,100.00
2022-12-11T08:39:14.967Z,100.00
2022-12-11T08:41:43.336Z,100.00
2022-12-11T08:44:16.689Z,100.00
2022-12-11T08:46:44.936Z,100.00
2022-12-11T08:49:12.915Z,100.00
2022-12-11T08:51:43.021Z,100.00
2022-12-11T08:54:10.816Z,100.00
2022-12-11T08:56:40.114Z,100.00
2022-12-11T08:59:07.886Z,100.00
2022-12-11T09:01:35.560Z,100.00
2022-12-11T09:04:03.664Z,100.00
2022-12-11T09:06:31.923Z,100.00
2022-12-11T09:09:01.075Z,100.00
2022-12-11T09:11:30.847Z,100.00
2022-12-11T09:14:06.754Z,100.00
2022-12-11T09:16:37.714Z,100.00
2022-12-11T09:19:05.508Z,100.00
2022-12-11T09:21:33.210Z,100.00
2022-12-11T09:24:02.160Z,100.00
2022-12-11T09:26:30.646Z,100.00
2022-12-11T09:28:59.787Z,100.00
2022-12-11T09:31:29.953Z,100.00
2022-12-11T09:33:59.359Z,100.00
2022-12-11T09:36:27.604Z,100.00
2022-12-11T09:38:55.535Z,100.00
2022-12-11T09:41:40.444Z,100.00
2022-12-11T09:44:19.290Z,100.00
2022-12-11T09:46:48.110Z,100.00
2022-12-11T09:49:23.350Z,100.00
2022-12-11T09:51:54.120Z,100.00
2022-12-11T09:54:21.671Z,100.00
2022-12-11T09:56:53.608Z,100.00
2022-12-11T09:59:27.725Z,100.00
2022-12-11T10:01:59.654Z,100.00
2022-12-11T10:04:35.626Z,100.00
2022-12-11T10:07:09.773Z,100.00
2022-12-11T10:09:42.091Z,100.00
2022-12-11T10:12:17.906Z,100.00
2022-12-11T10:14:56.707Z,100.00
2022-12-11T10:17:29.074Z,100.00
2022-12-11T10:19:57.666Z,100.00
2022-12-11T10:22:28.535Z,100.00
2022-12-11T10:25:10.563Z,99.68
2022-12-11T10:27:41.222Z,99.40
2022-12-11T10:30:16.837Z,99.10
2022-12-11T10:32:53.002Z,98.65
2022-12-11T10:35:28.072Z,99.53
2022-12-11T10:37:58.024Z,99.80
2022-12-11T10:40:26.738Z,99.81
2022-12-11T10:42:55.457Z,100.00
2022-12-11T10:45:24.969Z,100.00
2022-12-11T10:48:03.554Z,100.00
2022-12-11T10:50:31.190Z,100.00
2022-12-11T10:52:59.379Z,100.00
2022-12-11T10:55:28.858Z,100.00
2022-12-11T10:57:59.945Z,100.00
2022-12-11T11:00:35.575Z,100.00
2022-12-11T11:03:03.625Z,100.00
2022-12-11T11:05:34.564Z,100.00
2022-12-11T11:08:21.380Z,100.00
2022-12-11T11:10:56.966Z,100.00
2022-12-11T11:13:26.359Z,100.00
2022-12-11T11:16:01.732Z,100.00
2022-12-11T11:18:31.001Z,100.00
2022-12-11T11:20:59.235Z,100.00
2022-12-11T11:23:27.446Z,100.00
2022-12-11T11:25:57.332Z,100.00
2022-12-11T11:28:27.658Z,100.00
2022-12-11T11:30:58.556Z,100.00
2022-12-11T11:33:28.110Z,100.00
2022-12-11T11:35:56.957Z,100.00
2022-12-11T11:38:27.542Z,100.00
2022-12-11T11:41:04.349Z,100.00
2022-12-11T11:43:38.576Z,100.00
2022-12-11T11:46:10.132Z,100.00
2022-12-11T11:48:44.655Z,100.00
2022-12-11T11:51:17.800Z,100.00
2022-12-11T11:53:49.268Z,100.00
2022-12-11T11:56:24.063Z,100.00
2022-12-11T11:58:59.220Z,100.00
2022-12-11T12:01:27.201Z,100.00
2022-12-11T12:03:56.593Z,100.00
2022-12-11T12:06:37.492Z,100.00
2022-12-11T12:09:16.201Z,100.00
2022-12-11T12:11:49.434Z,100.00
2022-12-11T12:14:51.122Z,100.00
2022-12-11T12:17:19.376Z,100.00
2022-12-11T12:19:55.512Z,100.00
2022-12-11T12:22:35.089Z,100.00
2022-12-11T12:25:11.730Z,100.00
2022-12-11T12:27:53.266Z,100.00
2022-12-11T12:30:23.381Z,100.00
2022-12-11T12:33:02.042Z,100.00
2022-12-11T12:35:36.940Z,100.00
2022-12-11T12:38:12.662Z,100.00
2022-12-11T12:40:49.896Z,100.00
2022-12-11T12:43:34.774Z,100.00
2022-12-11T12:46:09.005Z,100.00
2022-12-11T12:48:36.955Z,100.00
2022-12-11T12:51:06.573Z,100.00
2022-12-11T12:53:35.936Z,100.00
2022-12-11T12:56:04.748Z,100.00
2022-12-11T12:58:42.131Z,100.00
2022-12-11T13:01:11.310Z,100.00
2022-12-11T13:03:51.327Z,100.00
2022-12-11T13:06:31.847Z,100.00
2022-12-11T13:09:10.002Z,100.00
2022-12-11T13:11:37.949Z,100.00
2022-12-11T13:14:08.137Z,100.00
2022-12-11T13:16:38.133Z,100.00
2022-12-11T13:19:17.983Z,100.00
2022-12-11T13:21:56.396Z,100.00
2022-12-11T13:24:28.509Z,100.00
2022-12-11T13:26:56.409Z,100.00
2022-12-11T13:29:32.332Z,100.00
2022-12-11T13:32:01.657Z,100.00
2022-12-11T13:34:32.978Z,100.00
2022-12-11T13:37:03.509Z,100.00
2022-12-11T13:39:33.955Z,100.00
2022-12-11T13:42:04.432Z,100.00
2022-12-11T13:44:41.848Z,100.00
2022-12-11T13:47:15.510Z,100.00
2022-12-11T13:49:49.424Z,100.00
2022-12-11T13:52:20.213Z,100.00
2022-12-11T13:54:50.022Z,100.00
2022-12-11T13:57:21.039Z,100.00
2022-12-11T13:59:50.142Z,100.00
2022-12-11T14:02:23.817Z,100.00
2022-12-11T14:04:54.726Z,100.00
2022-12-11T14:07:26.933Z,100.00
2022-12-11T14:09:58.141Z,100.00
2022-12-11T14:12:26.317Z,100.00
2022-12-11T14:14:57.173Z,100.00
2022-12-11T14:17:27.349Z,100.00
2022-12-11T14:19:56.315Z,100.00
2022-12-11T14:22:27.133Z,100.00
2022-12-11T14:24:56.255Z,100.00
2022-12-11T14:27:24.641Z,100.00
2022-12-11T14:29:52.794Z,100.00
2022-12-11T14:32:26.466Z,100.00
2022-12-11T14:34:55.457Z,100.00
2022-12-11T14:37:26.500Z,100.00
2022-12-11T14:39:59.004Z,100.00
2022-12-11T14:42:28.816Z,100.00
2022-12-11T14:44:58.757Z,100.00
2022-12-11T14:47:28.854Z,100.00
2022-12-11T14:49:59.462Z,100.00
2022-12-11T14:52:30.858Z,100.00
2022-12-11T14:55:02.596Z,100.00
2022-12-11T14:57:31.922Z,100.00
2022-12-11T14:59:59.707Z,100.00
2022-12-11T15:02:30.696Z,100.00
2022-12-11T15:05:02.571Z,100.00
2022-12-11T15:07:31.834Z,100.00
2022-12-11T15:09:59.482Z,100.00
2022-12-11T15:12:27.178Z,100.00
2022-12-11T15:14:56.422Z,100.00
2022-12-11T15:17:25.042Z,100.00
2022-12-11T15:19:54.620Z,100.00
2022-12-11T15:22:25.185Z,100.00
2022-12-11T15:24:55.159Z,100.00
2022-12-11T15:27:33.931Z,100.00
2022-12-11T15:30:01.673Z,100.00
2022-12-11T15:32:32.216Z,100.00
2022-12-11T15:35:00.985Z,100.00
2022-12-11T15:37:30.465Z,100.00
2022-12-11T15:40:01.400Z,100.00
2022-12-11T15:42:32.912Z,100.00
2022-12-11T15:45:00.518Z,100.00
2022-12-11T15:47:29.914Z,100.00
2022-12-11T15:50:00.086Z,100.00
2022-12-11T15:52:27.800Z,100.00
2022-12-11T15:54:57.558Z,100.00
2022-12-11T15:57:26.710Z,100.00
2022-12-11T15:59:55.215Z,100.00
2022-12-11T16:02:24.666Z,100.00
2022-12-11T16:04:52.427Z,100.00
2022-12-11T16:07:22.404Z,100.00
2022-12-11T16:09:50.386Z,100.00
2022-12-11T16:12:18.973Z,100.00
2022-12-11T16:14:47.972Z,100.00
2022-12-11T16:17:16.446Z,100.00
2022-12-11T16:19:45.441Z,100.00
2022-12-11T16:22:14.026Z,100.00
2022-12-11T16:24:42.484Z,100.00
2022-12-11T16:27:10.547Z,100.00
2022-12-11T16:29:39.883Z,100.00
2022-12-11T16:32:09.744Z,100.00
2022-12-11T16:34:37.738Z,100.00
2022-12-11T16:37:05.663Z,100.00
2022-12-11T16:39:33.372Z,100.00
2022-12-11T16:42:01.112Z,100.00
2022-12-11T16:44:28.792Z,100.00
2022-12-11T16:46:56.666Z,100.00
2022-12-11T16:49:26.191Z,100.00
2022-12-11T16:51:53.819Z,100.00
2022-12-11T16:54:21.484Z,100.00
2022-12-11T16:56:49.109Z,100.00
2022-12-11T16:59:16.696Z,100.00
2022-12-11T17:01:45.154Z,100.00
2022-12-11T17:04:12.760Z,100.00
2022-12-11T17:06:41.670Z,100.00
2022-12-11T17:09:09.284Z,100.00
2022-12-11T17:11:36.891Z,100.00
2022-12-11T17:14:04.612Z,100.00
2022-12-11T17:16:33.920Z,100.00
2022-12-11T17:19:03.025Z,100.00
2022-12-11T17:21:30.592Z,100.00
2022-12-11T17:23:59.643Z,100.00
2022-12-11T17:26:28.503Z,100.00
2022-12-11T17:28:57.702Z,100.00
2022-12-11T17:31:25.546Z,100.00
2022-12-11T17:33:53.958Z,100.00
2022-12-11T17:36:22.826Z,100.00
2022-12-11T17:38:50.613Z,100.00
2022-12-11T17:41:21.172Z,100.00
2022-12-11T17:43:49.582Z,100.00
2022-12-11T17:46:18.043Z,100.00
2022-12-11T17:48:45.814Z,100.00
2022-12-11T17:51:20.803Z,100.00
2022-12-11T17:53:48.558Z,100.00
2022-12-11T17:56:16.376Z,100.00
2022-12-11T17:58:45.551Z,100.00
2022-12-11T18:01:13.387Z,100.00
2022-12-11T18:03:41.315Z,100.00
2022-12-11T18:06:11.481Z,100.00
2022-12-11T18:08:40.280Z,100.00
2022-12-11T18:11:10.269Z,100.00
2022-12-11T18:13:37.929Z,100.00
2022-12-11T18:16:09.026Z,100.00
2022-12-11T18:18:36.842Z,100.00
2022-12-11T18:21:04.945Z,100.00
2022-12-11T18:23:32.836Z,100.00
2022-12-11T18:26:01.323Z,100.00
2022-12-11T18:28:31.771Z,100.00
2022-12-11T18:31:01.583Z,100.00
2022-12-11T18:33:30.919Z,100.00
2022-12-11T18:35:58.558Z,100.00
2022-12-11T18:38:26.514Z,100.00
2022-12-11T18:40:54.186Z,100.00
2022-12-11T18:43:21.934Z,100.00
2022-12-11T18:45:49.634Z,100.00
2022-12-11T18:48:17.401Z,100.00
2022-12-11T18:50:47.556Z,100.00
2022-12-11T18:53:15.451Z,100.00
2022-12-11T18:55:44.400Z,100.00
2022-12-11T18:58:12.678Z,100.00
2022-12-11T19:00:40.974Z,100.00
2022-12-11T19:03:09.556Z,100.00
2022-12-11T19:05:42.212Z,100.00
2022-12-11T19:08:12.621Z,100.00
2022-12-11T19:10:43.751Z,100.00
2022-12-11T19:13:11.417Z,100.00
2022-12-11T19:15:40.304Z,100.00
2022-12-11T19:18:08.111Z,100.00
2022-12-11T19:21:03.160Z,100.00
2022-12-11T19:23:27.313Z,100.00
2022-12-11T19:25:54.932Z,100.00
2022-12-11T19:28:22.525Z,100.00
2022-12-11T19:30:50.192Z,100.00
2022-12-11T19:33:18.112Z,100.00
2022-12-11T19:35:45.758Z,100.00
2022-12-11T19:38:13.746Z,100.00
2022-12-11T19:40:44.395Z,100.00
2022-12-11T19:43:12.563Z,100.00
2022-12-11T19:45:41.443Z,100.00
2022-12-11T19:48:09.106Z,100.00
2022-12-11T19:50:36.996Z,100.00
2022-12-11T19:53:05.059Z,100.00
2022-12-11T19:55:32.655Z,100.00
2022-12-11T19:58:01.690Z,100.00
2022-12-11T20:00:29.367Z,100.00
2022-12-11T20:02:56.988Z,100.00
2022-12-11T20:05:24.596Z,100.00
2022-12-11T20:07:53.191Z,100.00
2022-12-11T20:10:20.787Z,100.00
2022-12-11T20:12:48.422Z,100.00
2022-12-11T20:15:19.460Z,100.00
2022-12-11T20:17:47.279Z,100.00
2022-12-11T20:20:14.862Z,100.00
2022-12-11T20:22:42.506Z,100.00
2022-12-11T20:25:10.686Z,100.00
2022-12-11T20:27:38.773Z,100.00
2022-12-11T20:30:07.777Z,100.00
2022-12-11T20:32:36.950Z,100.00
2022-12-11T20:35:05.192Z,100.00
2022-12-11T20:37:33.016Z,100.00
2022-12-11T20:40:00.881Z,100.00
2022-12-11T20:42:28.591Z,100.00
2022-12-11T20:44:56.409Z,100.00
2022-12-11T20:47:24.075Z,100.00
2022-12-11T20:49:53.149Z,100.00
2022-12-11T20:52:21.675Z,100.00
2022-12-11T20:54:49.601Z,100.00
2022-12-11T20:57:17.321Z,100.00
2022-12-11T20:59:45.338Z,100.00
2022-12-11T21:02:13.405Z,100.00
2022-12-11T21:04:41.596Z,100.00
2022-12-11T21:07:11.385Z,100.00
2022-12-11T21:09:39.581Z,100.00
2022-12-11T21:12:08.004Z,100.00
2022-12-11T21:14:35.773Z,100.00
2022-12-11T21:17:03.451Z,100.00
2022-12-11T21:19:31.153Z,100.00
2022-12-11T21:21:58.998Z,100.00
2022-12-11T21:24:29.976Z,100.00
2022-12-11T21:26:59.002Z,100.00
2022-12-11T21:29:29.282Z,100.00
2022-12-11T21:31:57.513Z,100.00
2022-12-11T21:34:25.965Z,100.00
2022-12-11T21:36:56.696Z,100.00
2022-12-11T21:39:25.083Z,100.00
2022-12-11T21:41:54.144Z,100.00
2022-12-11T21:47:09.627Z,100.00
2022-12-11T21:49:38.169Z,100.00
2022-12-11T21:52:06.076Z,100.00
2022-12-11T21:54:33.767Z,100.00
2022-12-11T21:57:02.882Z,100.00
2022-12-11T21:59:30.470Z,100.00
2022-12-11T22:01:58.236Z,100.00
2022-12-11T22:04:25.848Z,100.00
2022-12-11T22:06:53.484Z,100.00
2022-12-11T22:09:21.165Z,100.00
2022-12-11T22:11:50.614Z,100.00
2022-12-11T22:14:22.649Z,100.00
2022-12-11T22:16:50.264Z,100.00
2022-12-11T22:19:17.892Z,100.00
2022-12-11T22:21:45.480Z,100.00
2022-12-11T22:24:14.059Z,100.00
2022-12-11T22:26:41.782Z,100.00
2022-12-11T22:29:09.367Z,100.00
2022-12-11T22:31:38.426Z,100.00
2022-12-11T22:34:06.054Z,100.00
2022-12-11T22:36:33.652Z,100.00
2022-12-11T22:39:01.918Z,100.00
2022-12-11T22:41:31.085Z,100.00
2022-12-11T22:43:59.489Z,100.00
2022-12-11T22:46:28.857Z,100.00
2022-12-11T22:48:58.315Z,100.00
2022-12-11T22:51:25.988Z,100.00
2022-12-11T22:53:57.303Z,100.00
2022-12-11T22:56:25.660Z,100.00
2022-12-11T22:58:53.339Z,100.00
2022-12-11T23:01:23.495Z,100.00
2022-12-11T23:03:51.258Z,100.00
2022-12-11T23:06:23.135Z,100.00
2022-12-11T23:08:50.798Z,100.00
2022-12-11T23:11:20.540Z,100.00
2022-12-11T23:13:48.175Z,100.00
2022-12-11T23:16:15.955Z,100.00
2022-12-11T23:18:43.996Z,100.00
2022-12-11T23:21:12.748Z,100.00
2022-12-11T23:23:42.763Z,100.00
2022-12-11T23:26:12.013Z,100.00
2022-12-11T23:28:40.211Z,100.00
2022-12-11T23:31:08.095Z,100.00
2022-12-11T23:33:35.810Z,100.00
2022-12-11T23:36:03.767Z,100.00
2022-12-11T23:38:31.468Z,100.00
2022-12-11T23:41:02.243Z,100.00
2022-12-11T23:43:29.909Z,100.00
2022-12-11T23:45:57.779Z,100.00
2022-12-11T23:48:25.482Z,100.00
2022-12-11T23:50:53.179Z,100.00
2022-12-11T23:53:20.771Z,100.00
2022-12-11T23:55:48.324Z,100.00
2022-12-11T23:58:17.274Z,100.00
